Time,TemperatureF,DewpointF,PressureIn,WindDirection,WindDirectionDegrees,WindSpeedMPH,WindSpeedGustMPH,Humidity,HourlyPrecipIn,Conditions,Clouds,dailyrainin,SoftwareType,DateUTC
2013-02-14 00:00:00,61.5,58.2,29.88,ESE,120,0.0,8.0,89,0.00,,,1.24,Wunderground v.1.15,2013-02-14 05:00:00,
2013-02-14 00:01:00,61.5,58.2,29.88,ESE,120,0.0,8.0,89,0.00,,,1.24,Wunderground v.1.15,2013-02-14 05:01:00,
2013-02-14 00:02:00,61.5,58.2,29.88,ESE,120,0.0,8.0,89,0.00,,,0.00,Wunderground v.1.15,2013-02-14 05:02:00,
2013-02-14 00:05:00,61.5,58.2,29.88,ESE,120,0.0,8.0,89,0.00,,,0.00,Wunderground v.1.15,2013-02-14 05:05:00,
2013-02-14 00:10:00,61.5,58.2,29.88,ESE,120,0.0,8.0,89,0.00,,,0.00,Wunderground v.1.15,2013-02-14 05:10:00,
2013-02-14 00:15:00,61.6,58.6,29.88,ESE,120,0.0,8.0,90,0.00,,,0.00,Wunderground v.1.15,2013-02-14 05:15:00,
2013-02-14 00:20:00,61.6,58.6,29.88,ESE,120,0.0,8.0,90,0.00,,,0.00,Wunderground v.1.15,2013-02-14 05:20:00,
2013-02-14 00:26:00,61.6,58.6,29.88,ESE,120,0.0,8.0,90,0.00,,,0.00,Wunderground v.1.15,2013-02-14 05:26:00,
2013-02-14 00:31:00,61.6,58.3,29.87,ESE,120,0.0,8.0,89,0.00,,,0.00,Wunderground v.1.15,2013-02-14 05:31:00,
2013-02-14 00:37:00,61.8,58.8,29.87,ESE,120,0.0,8.0,90,0.00,,,0.00,Wunderground v.1.15,2013-02-14 05:37:00,
2013-02-14 00:42:00,61.8,58.8,29.87,ESE,120,0.0,8.0,90,0.00,,,0.00,Wunderground v.1.15,2013-02-14 05:42:00,
2013-02-14 00:48:00,61.8,58.8,29.86,ESE,120,0.0,8.0,90,0.00,,,0.00,Wunderground v.1.15,2013-02-14 05:48:00,
2013-02-14 00:53:00,62.0,59.0,29.86,ESE,120,0.0,8.0,90,0.00,,,0.00,Wunderground v.1.15,2013-02-14 05:53:00,
2013-02-14 00:59:00,62.0,59.0,29.86,ESE,120,0.0,8.0,90,0.00,,,0.00,Wunderground v.1.15,2013-02-14 05:59:00,
2013-02-14 01:05:00,62.0,59.0,29.87,ESE,120,0.0,8.0,90,0.00,,,0.00,Wunderground v.1.15,2013-02-14 06:05:00,
2013-02-14 01:10:00,62.1,59.1,29.87,ESE,120,0.0,8.0,90,0.00,,,0.00,Wunderground v.1.15,2013-02-14 06:10:00,
2013-02-14 01:15:00,62.3,59.3,29.87,ESE,120,0.0,8.0,90,0.00,,,0.00,Wunderground v.1.15,2013-02-14 06:15:00,
2013-02-14 01:21:00,62.3,59.3,29.87,ESE,120,0.0,8.0,90,0.00,,,0.00,Wunderground v.1.15,2013-02-14 06:21:00,
2013-02-14 01:26:00,62.4,59.4,29.87,ESE,120,0.0,8.0,90,0.00,,,0.00,Wunderground v.1.15,2013-02-14 06:26:00,
2013-02-14 01:32:00,62.3,59.3,29.87,ESE,120,0.0,8.0,90,0.00,,,0.00,Wunderground v.1.15,2013-02-14 06:32:00,
2013-02-14 01:38:00,62.3,59.3,29.87,ESE,120,0.0,8.0,90,0.00,,,0.00,Wunderground v.1.15,2013-02-14 06:38:00,
2013-02-14 01:44:00,62.1,59.1,29.87,SE,130,0.0,8.0,90,0.00,,,0.00,Wunderground v.1.15,2013-02-14 06:44:00,
2013-02-14 01:49:00,62.0,59.0,29.86,SE,138,0.0,8.0,90,0.00,,,0.01,Wunderground v.1.15,2013-02-14 06:49:00,
2013-02-14 01:55:00,62.0,59.0,29.86,SE,138,0.0,8.0,90,0.00,,,0.01,Wunderground v.1.15,2013-02-14 06:55:00,
2013-02-14 02:01:00,62.0,59.0,29.86,SE,138,0.0,0.0,90,0.00,,,0.01,Wunderground v.1.15,2013-02-14 07:01:00,
2013-02-14 02:07:00,62.0,59.0,29.86,SE,138,0.0,0.0,90,0.00,,,0.01,Wunderground v.1.15,2013-02-14 07:07:00,
2013-02-14 02:12:00,62.0,59.0,29.86,SE,138,0.0,0.0,90,0.00,,,0.01,Wunderground v.1.15,2013-02-14 07:12:00,
2013-02-14 02:18:00,62.0,59.0,29.84,SE,138,0.0,0.0,90,0.00,,,0.01,Wunderground v.1.15,2013-02-14 07:18:00,
2013-02-14 02:23:00,62.0,59.0,29.84,SE,138,0.0,0.0,90,0.00,,,0.01,Wunderground v.1.15,2013-02-14 07:23:00,
2013-02-14 02:28:00,62.0,59.0,29.84,SE,138,0.0,0.0,90,0.00,,,0.01,Wunderground v.1.15,2013-02-14 07:28:00,
2013-02-14 02:34:00,62.0,59.0,29.83,SE,138,0.0,0.0,90,0.00,,,0.01,Wunderground v.1.15,2013-02-14 07:34:00,
2013-02-14 02:39:00,62.1,59.1,29.83,SE,138,0.0,0.0,90,0.00,,,0.01,Wunderground v.1.15,2013-02-14 07:39:00,
2013-02-14 02:44:00,62.1,59.1,29.83,SE,138,0.0,0.0,90,0.00,,,0.01,Wunderground v.1.15,2013-02-14 07:44:00,
2013-02-14 02:50:00,62.1,59.1,29.83,SE,138,0.0,0.0,90,0.00,,,0.01,Wunderground v.1.15,2013-02-14 07:50:00,
2013-02-14 02:55:00,62.1,59.1,29.83,SE,138,0.0,0.0,90,0.00,,,0.01,Wunderground v.1.15,2013-02-14 07:55:00,
2013-02-14 03:00:00,62.1,59.1,29.83,SE,138,0.0,0.0,90,0.00,,,0.01,Wunderground v.1.15,2013-02-14 08:00:00,
2013-02-14 03:05:00,62.0,59.0,29.83,SE,138,0.0,0.0,90,0.00,,,0.01,Wunderground v.1.15,2013-02-14 08:05:00,
2013-02-14 03:11:00,62.0,59.0,29.83,SE,138,0.0,0.0,90,0.00,,,0.01,Wunderground v.1.15,2013-02-14 08:11:00,
2013-02-14 03:16:00,62.0,59.0,29.84,SE,138,0.0,0.0,90,0.00,,,0.01,Wunderground v.1.15,2013-02-14 08:16:00,
2013-02-14 03:21:00,62.0,59.3,29.84,SE,138,0.0,0.0,91,0.00,,,0.01,Wunderground v.1.15,2013-02-14 08:21:00,
2013-02-14 03:27:00,62.0,59.3,29.84,SE,138,0.0,0.0,91,0.00,,,0.01,Wunderground v.1.15,2013-02-14 08:27:00,
2013-02-14 03:32:00,62.1,59.4,29.84,SE,138,0.0,0.0,91,0.00,,,0.01,Wunderground v.1.15,2013-02-14 08:32:00,
2013-02-14 03:38:00,62.1,59.4,29.84,SE,138,0.0,0.0,91,0.00,,,0.01,Wunderground v.1.15,2013-02-14 08:38:00,
2013-02-14 03:43:00,62.1,59.4,29.84,SE,138,0.0,0.0,91,0.00,,,0.01,Wunderground v.1.15,2013-02-14 08:43:00,
2013-02-14 03:48:00,62.1,59.4,29.84,SE,138,0.0,0.0,91,0.00,,,0.01,Wunderground v.1.15,2013-02-14 08:48:00,
2013-02-14 03:54:00,62.1,59.4,29.84,SE,138,0.0,0.0,91,0.00,,,0.01,Wunderground v.1.15,2013-02-14 08:54:00,
2013-02-14 03:59:00,62.0,59.3,29.84,SE,138,0.0,0.0,91,0.00,,,0.01,Wunderground v.1.15,2013-02-14 08:59:00,
2013-02-14 04:04:00,62.0,59.3,29.83,SE,138,0.0,0.0,91,0.00,,,0.01,Wunderground v.1.15,2013-02-14 09:04:00,
2013-02-14 04:09:00,62.1,59.4,29.83,SE,138,0.0,0.0,91,0.00,,,0.01,Wunderground v.1.15,2013-02-14 09:09:00,
2013-02-14 04:15:00,62.1,59.4,29.83,SE,138,0.0,0.0,91,0.00,,,0.01,Wunderground v.1.15,2013-02-14 09:15:00,
2013-02-14 04:20:00,62.3,59.6,29.83,SE,138,0.0,0.0,91,0.00,,,0.01,Wunderground v.1.15,2013-02-14 09:20:00,
2013-02-14 04:26:00,62.3,59.6,29.83,SE,138,0.0,0.0,91,0.00,,,0.01,Wunderground v.1.15,2013-02-14 09:26:00,
2013-02-14 04:32:00,62.1,59.4,29.83,SE,138,0.0,0.0,91,0.00,,,0.01,Wunderground v.1.15,2013-02-14 09:32:00,
2013-02-14 04:37:00,62.1,59.4,29.83,SE,138,0.0,0.0,91,0.00,,,0.01,Wunderground v.1.15,2013-02-14 09:37:00,
2013-02-14 04:43:00,62.0,59.3,29.83,SE,138,0.0,0.0,91,0.00,,,0.01,Wunderground v.1.15,2013-02-14 09:43:00,
2013-02-14 04:48:00,62.0,59.3,29.83,SE,138,0.0,0.0,91,0.00,,,0.01,Wunderground v.1.15,2013-02-14 09:48:00,
2013-02-14 04:54:00,62.0,59.3,29.83,SE,138,0.0,0.0,91,0.00,,,0.01,Wunderground v.1.15,2013-02-14 09:54:00,
2013-02-14 04:59:00,62.1,59.4,29.83,SE,138,0.0,0.0,91,0.00,,,0.01,Wunderground v.1.15,2013-02-14 09:59:00,
2013-02-14 05:05:00,62.1,59.4,29.83,SE,138,0.0,0.0,91,0.00,,,0.01,Wunderground v.1.15,2013-02-14 10:05:00,
2013-02-14 05:10:00,62.1,59.4,29.83,SE,138,0.0,0.0,91,0.00,,,0.01,Wunderground v.1.15,2013-02-14 10:10:00,
2013-02-14 05:16:00,62.1,59.4,29.83,SE,138,0.0,0.0,91,0.00,,,0.01,Wunderground v.1.15,2013-02-14 10:16:00,
2013-02-14 05:21:00,62.1,59.4,29.83,SE,138,0.0,0.0,91,0.00,,,0.01,Wunderground v.1.15,2013-02-14 10:21:00,
2013-02-14 05:27:00,62.1,59.4,29.83,SE,138,0.0,0.0,91,0.00,,,0.01,Wunderground v.1.15,2013-02-14 10:27:00,
2013-02-14 05:32:00,62.0,59.3,29.83,SE,138,0.0,0.0,91,0.00,,,0.01,Wunderground v.1.15,2013-02-14 10:32:00,
2013-02-14 05:38:00,62.0,59.3,29.83,SE,138,0.0,0.0,91,0.00,,,0.01,Wunderground v.1.15,2013-02-14 10:38:00,
2013-02-14 05:43:00,61.8,59.1,29.83,SE,138,0.0,0.0,91,0.00,,,0.01,Wunderground v.1.15,2013-02-14 10:43:00,
2013-02-14 05:49:00,61.8,59.1,29.84,SE,138,0.0,0.0,91,0.00,,,0.01,Wunderground v.1.15,2013-02-14 10:49:00,
2013-02-14 05:54:00,61.6,58.9,29.84,SE,138,0.0,0.0,91,0.00,,,0.01,Wunderground v.1.15,2013-02-14 10:54:00,
2013-02-14 05:59:00,61.6,58.9,29.84,SE,138,0.0,0.0,91,0.00,,,0.01,Wunderground v.1.15,2013-02-14 10:59:00,
2013-02-14 06:05:00,61.6,58.9,29.84,SE,138,0.0,0.0,91,0.00,,,0.01,Wunderground v.1.15,2013-02-14 11:05:00,
2013-02-14 06:10:00,61.6,58.9,29.84,SE,138,0.0,0.0,91,0.00,,,0.01,Wunderground v.1.15,2013-02-14 11:10:00,
2013-02-14 06:16:00,61.5,58.8,29.84,SE,138,0.0,0.0,91,0.00,,,0.01,Wunderground v.1.15,2013-02-14 11:16:00,
2013-02-14 06:21:00,61.3,58.7,29.84,SE,138,0.0,0.0,91,0.00,,,0.02,Wunderground v.1.15,2013-02-14 11:21:00,
2013-02-14 06:26:00,61.2,58.6,29.84,SE,138,0.0,0.0,91,0.00,,,0.02,Wunderground v.1.15,2013-02-14 11:26:00,
2013-02-14 06:32:00,61.0,58.4,29.85,SE,138,0.0,0.0,91,0.07,,,0.03,Wunderground v.1.15,2013-02-14 11:32:00,
2013-02-14 06:37:00,60.9,58.3,29.85,SE,138,0.0,0.0,91,0.06,,,0.03,Wunderground v.1.15,2013-02-14 11:37:00,
2013-02-14 06:42:00,60.7,58.1,29.85,SE,138,0.0,0.0,91,0.06,,,0.04,Wunderground v.1.15,2013-02-14 11:42:00,
2013-02-14 06:48:00,60.5,57.9,29.85,SE,138,0.0,0.0,91,0.05,,,0.04,Wunderground v.1.15,2013-02-14 11:48:00,
2013-02-14 06:53:00,60.4,57.8,29.85,SE,138,0.0,0.0,91,0.04,,,0.04,Wunderground v.1.15,2013-02-14 11:53:00,
2013-02-14 06:58:00,60.4,57.8,29.85,SE,138,0.0,0.0,91,0.00,,,0.04,Wunderground v.1.15,2013-02-14 11:58:00,
2013-02-14 07:04:00,60.2,57.6,29.87,SE,138,0.0,0.0,91,0.00,,,0.04,Wunderground v.1.15,2013-02-14 12:04:00,
2013-02-14 07:09:00,60.1,57.5,29.87,SE,138,0.0,0.0,91,0.00,,,0.04,Wunderground v.1.15,2013-02-14 12:09:00,
2013-02-14 07:14:00,59.9,57.3,29.87,SE,138,0.0,0.0,91,0.00,,,0.04,Wunderground v.1.15,2013-02-14 12:14:00,
2013-02-14 07:20:00,59.8,57.2,29.87,SE,138,0.0,0.0,91,0.00,,,0.04,Wunderground v.1.15,2013-02-14 12:20:00,
2013-02-14 07:25:00,59.6,57.0,29.87,SE,138,0.0,0.0,91,0.00,,,0.04,Wunderground v.1.15,2013-02-14 12:25:00,
2013-02-14 07:31:00,59.5,56.9,29.89,SE,138,0.0,0.0,91,0.00,,,0.04,Wunderground v.1.15,2013-02-14 12:31:00,
2013-02-14 07:36:00,59.5,56.9,29.89,SE,138,0.0,0.0,91,0.00,,,0.04,Wunderground v.1.15,2013-02-14 12:36:00,
2013-02-14 07:42:00,59.3,56.7,29.89,SE,138,0.0,0.0,91,0.00,,,0.04,Wunderground v.1.15,2013-02-14 12:42:00,
2013-02-14 07:47:00,59.3,56.7,29.88,SE,138,0.0,0.0,91,0.00,,,0.04,Wunderground v.1.15,2013-02-14 12:47:00,
2013-02-14 07:53:00,59.3,56.7,29.88,SE,138,0.0,0.0,91,0.00,,,0.04,Wunderground v.1.15,2013-02-14 12:53:00,
2013-02-14 07:58:00,59.3,56.7,29.88,SE,138,0.0,0.0,91,0.00,,,0.04,Wunderground v.1.15,2013-02-14 12:58:00,
2013-02-14 08:04:00,59.3,57.0,29.89,SE,138,0.0,0.0,92,0.00,,,0.04,Wunderground v.1.15,2013-02-14 13:04:00,
2013-02-14 08:10:00,59.5,57.2,29.89,SE,138,0.0,0.0,92,0.00,,,0.04,Wunderground v.1.15,2013-02-14 13:10:00,
2013-02-14 08:16:00,59.5,57.2,29.89,SE,138,0.0,0.0,92,0.00,,,0.04,Wunderground v.1.15,2013-02-14 13:16:00,
2013-02-14 08:21:00,59.6,57.3,29.89,SE,138,0.0,0.0,92,0.00,,,0.04,Wunderground v.1.15,2013-02-14 13:21:00,
2013-02-14 08:26:00,59.8,57.5,29.89,SE,138,0.0,0.0,92,0.00,,,0.04,Wunderground v.1.15,2013-02-14 13:26:00,
2013-02-14 08:32:00,59.9,57.6,29.89,SE,138,0.0,0.0,92,0.00,,,0.04,Wunderground v.1.15,2013-02-14 13:32:00,
2013-02-14 08:37:00,60.1,57.8,29.89,SE,138,0.0,0.0,92,0.00,,,0.04,Wunderground v.1.15,2013-02-14 13:37:00,
2013-02-14 08:43:00,60.4,58.1,29.89,SE,138,0.0,0.0,92,0.00,,,0.04,Wunderground v.1.15,2013-02-14 13:43:00,
2013-02-14 08:48:00,60.9,58.6,29.91,SE,138,0.0,0.0,92,0.00,,,0.04,Wunderground v.1.15,2013-02-14 13:48:00,
2013-02-14 08:53:00,61.3,59.0,29.91,North,11,0.0,0.0,92,0.00,,,0.04,Wunderground v.1.15,2013-02-14 13:53:00,
2013-02-14 08:59:00,62.0,59.6,29.91,North,11,0.0,0.0,92,0.00,,,0.04,Wunderground v.1.15,2013-02-14 13:59:00,
2013-02-14 09:04:00,62.1,59.7,29.91,NNW,335,0.0,0.0,92,0.00,,,0.04,Wunderground v.1.15,2013-02-14 14:04:00,
2013-02-14 09:10:00,62.6,60.2,29.91,North,11,0.0,2.0,92,0.00,,,0.04,Wunderground v.1.15,2013-02-14 14:10:00,
2013-02-14 09:15:00,62.7,60.3,29.91,WNW,294,0.0,2.0,92,0.00,,,0.04,Wunderground v.1.15,2013-02-14 14:15:00,
2013-02-14 09:20:00,62.7,60.3,29.92,North,354,1.0,1.0,92,0.00,,,0.04,Wunderground v.1.15,2013-02-14 14:20:00,
2013-02-14 09:26:00,62.9,60.2,29.92,NNW,336,0.0,1.0,91,0.00,,,0.04,Wunderground v.1.15,2013-02-14 14:26:00,
2013-02-14 09:31:00,62.9,60.2,29.92,North,4,0.0,2.0,91,0.00,,,0.04,Wunderground v.1.15,2013-02-14 14:31:00,
2013-02-14 09:37:00,62.7,60.0,29.92,North,4,1.0,6.0,91,0.00,,,0.04,Wunderground v.1.15,2013-02-14 14:37:00,
2013-02-14 09:42:00,62.7,60.0,29.92,North,4,0.0,0.0,91,0.00,,,0.04,Wunderground v.1.15,2013-02-14 14:42:00,
2013-02-14 09:47:00,62.7,60.0,29.93,North,3,0.0,2.0,91,0.00,,,0.04,Wunderground v.1.15,2013-02-14 14:47:00,
2013-02-14 09:53:00,62.7,60.0,29.93,West,271,1.0,1.0,91,0.00,,,0.04,Wunderground v.1.15,2013-02-14 14:53:00,
2013-02-14 09:59:00,62.7,59.7,29.93,NNW,329,1.0,2.0,90,0.00,,,0.04,Wunderground v.1.15,2013-02-14 14:59:00,
2013-02-14 10:04:00,62.6,59.6,29.95,North,350,1.0,5.0,90,0.00,,,0.04,Wunderground v.1.15,2013-02-14 15:04:00,
2013-02-14 10:09:00,62.4,59.4,29.95,North,359,1.0,8.0,90,0.00,,,0.04,Wunderground v.1.15,2013-02-14 15:09:00,
2013-02-14 10:14:00,62.1,58.8,29.95,North,359,3.0,8.0,89,0.00,,,0.04,Wunderground v.1.15,2013-02-14 15:14:00,
2013-02-14 10:20:00,62.1,58.8,29.95,North,0,3.0,3.0,89,0.00,,,0.05,Wunderground v.1.15,2013-02-14 15:20:00,
2013-02-14 10:25:00,62.3,59.0,29.95,North,0,2.0,3.0,89,0.00,,,0.05,Wunderground v.1.15,2013-02-14 15:25:00,
2013-02-14 10:30:00,62.4,59.1,29.95,North,6,2.0,6.0,89,0.00,,,0.05,Wunderground v.1.15,2013-02-14 15:30:00,
2013-02-14 10:35:00,62.3,59.0,29.95,ENE,68,3.0,6.0,89,0.00,,,0.05,Wunderground v.1.15,2013-02-14 15:35:00,
2013-02-14 10:41:00,62.3,58.7,29.95,NNW,337,2.0,3.0,88,0.00,,,0.05,Wunderground v.1.15,2013-02-14 15:41:00,
2013-02-14 10:46:00,62.3,58.7,29.95,NNW,333,3.0,6.0,88,0.00,,,0.05,Wunderground v.1.15,2013-02-14 15:46:00,
2013-02-14 10:51:00,62.3,58.7,29.95,North,359,4.0,6.0,88,0.00,,,0.05,Wunderground v.1.15,2013-02-14 15:51:00,
2013-02-14 10:57:00,62.3,58.7,29.95,NW,309,2.0,6.0,88,0.00,,,0.05,Wunderground v.1.15,2013-02-14 15:57:00,
2013-02-14 11:02:00,62.4,58.8,29.95,NW,308,1.0,5.0,88,0.00,,,0.05,Wunderground v.1.15,2013-02-14 16:02:00,
2013-02-14 11:07:00,62.4,58.8,29.95,NNE,23,1.0,5.0,88,0.00,,,0.05,Wunderground v.1.15,2013-02-14 16:07:00,
2013-02-14 11:12:00,62.3,58.7,29.95,North,1,1.0,7.0,88,0.00,,,0.05,Wunderground v.1.15,2013-02-14 16:12:00,
2013-02-14 11:18:00,62.3,58.7,29.95,NNW,343,3.0,7.0,88,0.00,,,0.05,Wunderground v.1.15,2013-02-14 16:18:00,
2013-02-14 11:23:00,62.3,58.7,29.95,North,8,3.0,5.0,88,0.00,,,0.05,Wunderground v.1.15,2013-02-14 16:23:00,
2013-02-14 11:28:00,62.1,58.2,29.95,NNW,339,2.0,5.0,87,0.00,,,0.05,Wunderground v.1.15,2013-02-14 16:28:00,
2013-02-14 11:33:00,62.1,58.2,29.94,North,4,2.0,2.0,87,0.00,,,0.05,Wunderground v.1.15,2013-02-14 16:33:00,
2013-02-14 11:39:00,61.8,57.9,29.94,North,0,3.0,3.0,87,0.00,,,0.05,Wunderground v.1.15,2013-02-14 16:39:00,
2013-02-14 11:44:00,61.5,57.6,29.94,NNE,28,4.0,7.0,87,0.00,,,0.05,Wunderground v.1.15,2013-02-14 16:44:00,
2013-02-14 11:49:00,61.3,57.4,29.95,NNW,333,3.0,3.0,87,0.00,,,0.05,Wunderground v.1.15,2013-02-14 16:49:00,
2013-02-14 11:54:00,61.3,57.4,29.95,NNE,28,1.0,3.0,87,0.00,,,0.05,Wunderground v.1.15,2013-02-14 16:54:00,
2013-02-14 11:59:00,61.2,57.3,29.95,North,353,0.0,0.0,87,0.00,,,0.06,Wunderground v.1.15,2013-02-14 16:59:00,
2013-02-14 12:04:00,61.0,57.1,29.93,East,90,0.0,0.0,87,0.00,,,0.06,Wunderground v.1.15,2013-02-14 17:04:00,
2013-02-14 12:10:00,60.7,56.8,29.93,ESE,113,0.0,0.0,87,0.00,,,0.06,Wunderground v.1.15,2013-02-14 17:10:00,
2013-02-14 12:15:00,60.5,56.6,29.93,East,95,0.0,0.0,87,0.00,,,0.06,Wunderground v.1.15,2013-02-14 17:15:00,
2013-02-14 12:20:00,60.5,56.9,29.93,East,95,0.0,0.0,88,0.00,,,0.06,Wunderground v.1.15,2013-02-14 17:20:00,
2013-02-14 12:25:00,60.4,56.8,29.93,ESE,102,0.0,0.0,88,0.00,,,0.06,Wunderground v.1.15,2013-02-14 17:25:00,
2013-02-14 12:31:00,60.5,56.9,29.93,East,100,0.0,0.0,88,0.00,,,0.06,Wunderground v.1.15,2013-02-14 17:31:00,
2013-02-14 12:36:00,60.5,56.9,29.93,East,100,0.0,0.0,88,0.00,,,0.07,Wunderground v.1.15,2013-02-14 17:36:00,
2013-02-14 12:41:00,60.5,56.9,29.93,East,85,0.0,0.0,88,0.00,,,0.07,Wunderground v.1.15,2013-02-14 17:41:00,
2013-02-14 12:47:00,60.4,56.8,29.92,East,86,0.0,0.0,88,0.05,,,0.08,Wunderground v.1.15,2013-02-14 17:47:00,
2013-02-14 12:52:00,60.4,56.8,29.92,ENE,78,0.0,0.0,88,0.05,,,0.08,Wunderground v.1.15,2013-02-14 17:52:00,
2013-02-14 12:57:00,60.4,56.8,29.92,East,79,0.0,0.0,88,0.05,,,0.08,Wunderground v.1.15,2013-02-14 17:57:00,
2013-02-14 13:03:00,60.4,56.8,29.89,North,356,0.0,0.0,88,0.04,,,0.09,Wunderground v.1.15,2013-02-14 18:03:00,
2013-02-14 13:08:00,60.4,57.1,29.89,North,354,0.0,0.0,89,0.04,,,0.09,Wunderground v.1.15,2013-02-14 18:08:00,
2013-02-14 13:13:00,60.5,57.2,29.89,NNE,13,0.0,0.0,89,0.04,,,0.09,Wunderground v.1.15,2013-02-14 18:13:00,
2013-02-14 13:18:00,60.5,57.2,29.88,NNE,13,0.0,0.0,89,0.00,,,0.09,Wunderground v.1.15,2013-02-14 18:18:00,
2013-02-14 13:24:00,60.5,57.2,29.88,NNE,17,0.0,0.0,89,0.00,,,0.09,Wunderground v.1.15,2013-02-14 18:24:00,
2013-02-14 13:29:00,60.5,57.2,29.88,East,96,0.0,0.0,89,0.00,,,0.09,Wunderground v.1.15,2013-02-14 18:29:00,
2013-02-14 13:34:00,60.5,57.2,29.87,East,93,0.0,0.0,89,0.00,,,0.09,Wunderground v.1.15,2013-02-14 18:34:00,
2013-02-14 13:40:00,60.5,57.2,29.87,East,93,0.0,0.0,89,0.00,,,0.10,Wunderground v.1.15,2013-02-14 18:40:00,
2013-02-14 13:46:00,60.5,57.2,29.87,East,93,0.0,2.0,89,0.00,,,0.10,Wunderground v.1.15,2013-02-14 18:46:00,
2013-02-14 13:51:00,60.5,57.2,29.87,East,93,0.0,0.0,89,0.00,,,0.10,Wunderground v.1.15,2013-02-14 18:51:00,
2013-02-14 13:56:00,60.7,57.4,29.87,East,93,0.0,0.0,89,0.00,,,0.10,Wunderground v.1.15,2013-02-14 18:56:00,
2013-02-14 14:02:00,60.7,57.4,29.89,East,93,0.0,0.0,89,0.00,,,0.10,Wunderground v.1.15,2013-02-14 19:02:00,
2013-02-14 14:07:00,60.7,57.4,29.89,East,93,0.0,0.0,89,0.00,,,0.10,Wunderground v.1.15,2013-02-14 19:07:00,
2013-02-14 14:12:00,60.9,57.9,29.89,East,93,0.0,0.0,90,0.00,,,0.10,Wunderground v.1.15,2013-02-14 19:12:00,
2013-02-14 14:18:00,61.0,58.0,29.87,East,93,0.0,0.0,90,0.00,,,0.11,Wunderground v.1.15,2013-02-14 19:18:00,
2013-02-14 14:23:00,61.0,58.0,29.87,East,93,0.0,0.0,90,0.00,,,0.11,Wunderground v.1.15,2013-02-14 19:23:00,
2013-02-14 14:28:00,61.2,58.2,29.87,East,93,0.0,0.0,90,0.00,,,0.11,Wunderground v.1.15,2013-02-14 19:28:00,
2013-02-14 14:33:00,61.0,57.7,29.87,East,93,0.0,0.0,89,0.00,,,0.11,Wunderground v.1.15,2013-02-14 19:33:00,
2013-02-14 14:38:00,61.0,58.0,29.87,East,93,0.0,0.0,90,0.00,,,0.11,Wunderground v.1.15,2013-02-14 19:38:00,
2013-02-14 14:44:00,61.2,58.2,29.87,East,93,0.0,0.0,90,0.00,,,0.12,Wunderground v.1.15,2013-02-14 19:44:00,
2013-02-14 14:49:00,61.2,58.2,29.87,East,93,0.0,0.0,90,0.00,,,0.12,Wunderground v.1.15,2013-02-14 19:49:00,
2013-02-14 14:54:00,61.3,58.3,29.87,East,93,0.0,0.0,90,0.00,,,0.12,Wunderground v.1.15,2013-02-14 19:54:00,
2013-02-14 14:59:00,61.3,58.3,29.87,East,93,0.0,0.0,90,0.00,,,0.12,Wunderground v.1.15,2013-02-14 19:59:00,
2013-02-14 15:05:00,61.5,58.5,29.87,East,93,0.0,0.0,90,0.00,,,0.13,Wunderground v.1.15,2013-02-14 20:05:00,
2013-02-14 15:10:00,61.6,58.6,29.87,East,93,0.0,0.0,90,0.00,,,0.13,Wunderground v.1.15,2013-02-14 20:10:00,
2013-02-14 15:15:00,61.6,58.6,29.87,East,93,0.0,0.0,90,0.06,,,0.14,Wunderground v.1.15,2013-02-14 20:15:00,
2013-02-14 15:21:00,61.5,58.5,29.87,East,93,0.0,0.0,90,0.15,,,0.15,Wunderground v.1.15,2013-02-14 20:21:00,
2013-02-14 15:26:00,61.3,58.3,29.87,East,93,0.0,0.0,90,0.06,,,0.15,Wunderground v.1.15,2013-02-14 20:26:00,
2013-02-14 15:31:00,61.3,58.3,29.86,East,93,0.0,0.0,90,0.04,,,0.15,Wunderground v.1.15,2013-02-14 20:31:00,
2013-02-14 15:36:00,61.3,58.3,29.86,East,93,0.0,0.0,90,0.00,,,0.15,Wunderground v.1.15,2013-02-14 20:36:00,
2013-02-14 15:42:00,61.3,58.3,29.86,East,93,0.0,0.0,90,0.00,,,0.15,Wunderground v.1.15,2013-02-14 20:42:00,
2013-02-14 15:47:00,61.5,58.5,29.87,East,93,0.0,0.0,90,0.00,,,0.15,Wunderground v.1.15,2013-02-14 20:47:00,
2013-02-14 15:52:00,61.5,58.5,29.87,East,93,0.0,0.0,90,0.00,,,0.15,Wunderground v.1.15,2013-02-14 20:52:00,
2013-02-14 15:57:00,61.5,58.5,29.87,East,93,0.0,0.0,90,0.00,,,0.15,Wunderground v.1.15,2013-02-14 20:57:00,
2013-02-14 16:03:00,61.5,58.5,29.87,East,93,0.0,0.0,90,0.00,,,0.15,Wunderground v.1.15,2013-02-14 21:03:00,
2013-02-14 16:08:00,61.5,58.5,29.87,East,93,0.0,0.0,90,0.00,,,0.15,Wunderground v.1.15,2013-02-14 21:08:00,
2013-02-14 16:13:00,61.3,58.3,29.87,East,93,0.0,0.0,90,0.00,,,0.15,Wunderground v.1.15,2013-02-14 21:13:00,
2013-02-14 16:18:00,61.2,58.2,29.87,East,93,0.0,0.0,90,0.00,,,0.16,Wunderground v.1.15,2013-02-14 21:18:00,
2013-02-14 16:23:00,61.2,58.2,29.87,East,93,0.0,0.0,90,0.00,,,0.16,Wunderground v.1.15,2013-02-14 21:23:00,
2013-02-14 16:29:00,61.2,58.2,29.87,East,93,0.0,0.0,90,0.05,,,0.17,Wunderground v.1.15,2013-02-14 21:29:00,
2013-02-14 16:34:00,61.2,58.2,29.89,East,93,0.0,0.0,90,0.05,,,0.17,Wunderground v.1.15,2013-02-14 21:34:00,
2013-02-14 16:39:00,61.0,58.0,29.89,East,93,0.0,0.0,90,0.06,,,0.18,Wunderground v.1.15,2013-02-14 21:39:00,
2013-02-14 16:45:00,61.0,58.0,29.89,East,93,0.0,0.0,90,0.09,,,0.19,Wunderground v.1.15,2013-02-14 21:45:00,
2013-02-14 16:50:00,60.9,57.9,29.89,East,93,0.0,0.0,90,0.08,,,0.19,Wunderground v.1.15,2013-02-14 21:50:00,
2013-02-14 16:55:00,60.7,57.7,29.89,East,93,0.0,0.0,90,0.07,,,0.20,Wunderground v.1.15,2013-02-14 21:55:00,
2013-02-14 17:01:00,60.5,57.6,29.89,East,93,0.0,0.0,90,0.06,,,0.20,Wunderground v.1.15,2013-02-14 22:01:00,
2013-02-14 17:06:00,60.5,57.6,29.89,NNE,18,0.0,0.0,90,0.04,,,0.20,Wunderground v.1.15,2013-02-14 22:06:00,
2013-02-14 17:11:00,60.4,57.5,29.89,NNE,17,0.0,0.0,90,0.00,,,0.21,Wunderground v.1.15,2013-02-14 22:11:00,
2013-02-14 17:16:00,60.4,57.5,29.89,NNE,14,0.0,0.0,90,0.00,,,0.21,Wunderground v.1.15,2013-02-14 22:16:00,
2013-02-14 17:22:00,60.4,57.5,29.89,North,7,0.0,0.0,90,0.00,,,0.21,Wunderground v.1.15,2013-02-14 22:22:00,
2013-02-14 17:27:00,60.2,57.3,29.89,North,0,0.0,2.0,90,0.00,,,0.21,Wunderground v.1.15,2013-02-14 22:27:00,
2013-02-14 17:32:00,60.2,57.3,29.87,North,0,0.0,0.0,90,0.00,,,0.21,Wunderground v.1.15,2013-02-14 22:32:00,
2013-02-14 17:38:00,60.1,57.5,29.87,North,349,0.0,0.0,91,0.00,,,0.22,Wunderground v.1.15,2013-02-14 22:38:00,
2013-02-14 17:43:00,60.2,57.6,29.87,North,349,0.0,2.0,91,0.00,,,0.22,Wunderground v.1.15,2013-02-14 22:43:00,
2013-02-14 17:48:00,60.2,57.6,29.90,North,353,0.0,2.0,91,0.04,,,0.23,Wunderground v.1.15,2013-02-14 22:48:00,
2013-02-14 17:53:00,60.1,57.5,29.90,NNW,346,0.0,1.0,91,0.04,,,0.23,Wunderground v.1.15,2013-02-14 22:53:00,
2013-02-14 17:59:00,60.1,57.5,29.90,NNW,339,0.0,0.0,91,0.04,,,0.23,Wunderground v.1.15,2013-02-14 22:59:00,
2013-02-14 18:04:00,60.1,57.5,29.91,North,1,0.0,0.0,91,0.00,,,0.23,Wunderground v.1.15,2013-02-14 23:04:00,
2013-02-14 18:09:00,59.9,57.3,29.91,NW,315,0.0,0.0,91,0.00,,,0.23,Wunderground v.1.15,2013-02-14 23:09:00,
2013-02-14 18:15:00,59.9,57.3,29.91,NW,309,0.0,3.0,91,0.00,,,0.23,Wunderground v.1.15,2013-02-14 23:15:00,
2013-02-14 18:20:00,59.8,57.2,29.92,NNW,339,1.0,2.0,91,0.00,,,0.23,Wunderground v.1.15,2013-02-14 23:20:00,
2013-02-14 18:25:00,59.6,57.0,29.92,NW,320,1.0,2.0,91,0.00,,,0.23,Wunderground v.1.15,2013-02-14 23:25:00,
2013-02-14 18:31:00,59.5,56.9,29.92,North,354,1.0,1.0,91,0.00,,,0.23,Wunderground v.1.15,2013-02-14 23:31:00,
2013-02-14 18:37:00,59.3,56.7,29.92,North,0,0.0,2.0,91,0.00,,,0.23,Wunderground v.1.15,2013-02-14 23:37:00,
2013-02-14 18:42:00,59.2,56.6,29.92,NW,308,1.0,4.0,91,0.00,,,0.23,Wunderground v.1.15,2013-02-14 23:42:00,
2013-02-14 18:47:00,59.2,56.6,29.90,NNE,14,1.0,4.0,91,0.00,,,0.24,Wunderground v.1.15,2013-02-14 23:47:00,
2013-02-14 18:53:00,59.0,56.4,29.90,NNW,340,0.0,2.0,91,0.00,,,0.24,Wunderground v.1.15,2013-02-14 23:53:00,
2013-02-14 18:59:00,59.0,56.4,29.90,NNW,340,0.0,0.0,91,0.00,,,0.24,Wunderground v.1.15,2013-02-14 23:59:00,
2013-02-14 19:04:00,58.7,56.1,29.91,North,0,0.0,0.0,91,0.00,,,0.24,Wunderground v.1.15,2013-02-15 00:04:00,
2013-02-14 19:09:00,58.6,56.0,29.91,ENE,76,0.0,0.0,91,0.00,,,0.24,Wunderground v.1.15,2013-02-15 00:09:00,
2013-02-14 19:15:00,58.4,55.8,29.91,East,88,0.0,3.0,91,0.00,,,0.24,Wunderground v.1.15,2013-02-15 00:15:00,
2013-02-14 19:20:00,58.3,55.7,29.89,East,85,0.0,0.0,91,0.00,,,0.24,Wunderground v.1.15,2013-02-15 00:20:00,
2013-02-14 19:25:00,58.3,55.7,29.89,East,85,0.0,0.0,91,0.00,,,0.24,Wunderground v.1.15,2013-02-15 00:25:00,
2013-02-14 19:31:00,58.1,55.5,29.90,East,85,0.0,0.0,91,0.00,,,0.24,Wunderground v.1.15,2013-02-15 00:31:00,
2013-02-14 19:36:00,58.1,55.5,29.90,East,85,0.0,0.0,91,0.00,,,0.24,Wunderground v.1.15,2013-02-15 00:36:00,
2013-02-14 19:41:00,58.3,55.7,29.90,NE,54,0.0,0.0,91,0.00,,,0.24,Wunderground v.1.15,2013-02-15 00:41:00,
2013-02-14 19:46:00,58.3,55.7,29.92,NE,54,0.0,0.0,91,0.00,,,0.24,Wunderground v.1.15,2013-02-15 00:46:00,
2013-02-14 19:52:00,58.3,55.7,29.92,NE,54,0.0,0.0,91,0.00,,,0.24,Wunderground v.1.15,2013-02-15 00:52:00,
2013-02-14 19:58:00,58.4,55.8,29.92,NE,54,0.0,0.0,91,0.00,,,0.24,Wunderground v.1.15,2013-02-15 00:58:00,
2013-02-14 20:03:00,58.6,56.0,29.93,NE,54,0.0,0.0,91,0.00,,,0.24,Wunderground v.1.15,2013-02-15 01:03:00,
2013-02-14 20:09:00,58.6,56.0,29.93,NE,54,0.0,0.0,91,0.00,,,0.24,Wunderground v.1.15,2013-02-15 01:09:00,
2013-02-14 20:14:00,58.7,56.1,29.93,NE,54,0.0,0.0,91,0.00,,,0.24,Wunderground v.1.15,2013-02-15 01:14:00,
2013-02-14 20:19:00,58.7,56.1,29.91,NE,54,0.0,0.0,91,0.00,,,0.24,Wunderground v.1.15,2013-02-15 01:19:00,
2013-02-14 20:24:00,58.6,56.0,29.91,East,90,0.0,2.0,91,0.00,,,0.24,Wunderground v.1.15,2013-02-15 01:24:00,
2013-02-14 20:30:00,58.4,55.8,29.91,East,97,1.0,1.0,91,0.00,,,0.25,Wunderground v.1.15,2013-02-15 01:30:00,
2013-02-14 20:35:00,58.3,55.7,29.89,ESE,102,1.0,3.0,91,0.00,,,0.25,Wunderground v.1.15,2013-02-15 01:35:00,
2013-02-14 20:41:00,58.1,55.5,29.89,East,89,1.0,1.0,91,0.06,,,0.26,Wunderground v.1.15,2013-02-15 01:41:00,
2013-02-14 20:47:00,58.0,55.4,29.89,East,89,0.0,1.0,91,0.06,,,0.26,Wunderground v.1.15,2013-02-15 01:47:00,
2013-02-14 20:52:00,58.1,55.5,29.89,East,89,0.0,0.0,91,0.05,,,0.26,Wunderground v.1.15,2013-02-15 01:52:00,
2013-02-14 20:58:00,58.1,55.5,29.89,East,89,0.0,0.0,91,0.00,,,0.26,Wunderground v.1.15,2013-02-15 01:58:00,
2013-02-14 21:03:00,58.1,55.5,29.90,East,89,0.0,0.0,91,0.00,,,0.26,Wunderground v.1.15,2013-02-15 02:03:00,
2013-02-14 21:08:00,58.1,55.5,29.90,East,89,0.0,0.0,91,0.00,,,0.27,Wunderground v.1.15,2013-02-15 02:08:00,
2013-02-14 21:13:00,58.0,55.7,29.90,East,89,0.0,0.0,92,0.00,,,0.27,Wunderground v.1.15,2013-02-15 02:13:00,
2013-02-14 21:18:00,58.1,55.8,29.92,East,89,0.0,0.0,92,0.00,,,0.27,Wunderground v.1.15,2013-02-15 02:18:00,
2013-02-14 21:24:00,58.3,56.0,29.92,East,89,0.0,0.0,92,0.00,,,0.27,Wunderground v.1.15,2013-02-15 02:24:00,
2013-02-14 21:29:00,58.3,56.0,29.92,East,89,0.0,0.0,92,0.00,,,0.27,Wunderground v.1.15,2013-02-15 02:29:00,
2013-02-14 21:34:00,58.3,56.0,29.92,East,85,0.0,0.0,92,0.00,,,0.27,Wunderground v.1.15,2013-02-15 02:34:00,
2013-02-14 21:39:00,58.3,56.0,29.92,North,359,0.0,0.0,92,0.00,,,0.27,Wunderground v.1.15,2013-02-15 02:39:00,
2013-02-14 21:45:00,58.3,56.0,29.92,North,359,0.0,0.0,92,0.00,,,0.27,Wunderground v.1.15,2013-02-15 02:45:00,
2013-02-14 21:50:00,58.3,56.0,29.95,North,352,0.0,0.0,92,0.00,,,0.27,Wunderground v.1.15,2013-02-15 02:50:00,
2013-02-14 21:55:00,58.3,56.0,29.95,North,350,0.0,0.0,92,0.00,,,0.27,Wunderground v.1.15,2013-02-15 02:55:00,
2013-02-14 22:01:00,58.3,56.0,29.93,North,350,0.0,0.0,92,0.00,,,0.27,Wunderground v.1.15,2013-02-15 03:01:00,
2013-02-14 22:06:00,58.3,56.0,29.93,North,352,0.0,0.0,92,0.00,,,0.27,Wunderground v.1.15,2013-02-15 03:06:00,
2013-02-14 22:11:00,58.3,56.0,29.93,North,352,0.0,0.0,92,0.00,,,0.28,Wunderground v.1.15,2013-02-15 03:11:00,
2013-02-14 22:16:00,58.3,56.0,29.92,North,350,0.0,0.0,92,0.08,,,0.29,Wunderground v.1.15,2013-02-15 03:16:00,
2013-02-14 22:22:00,58.1,55.8,29.92,North,352,0.0,0.0,92,0.08,,,0.29,Wunderground v.1.15,2013-02-15 03:22:00,
2013-02-14 22:27:00,58.1,55.8,29.92,North,352,0.0,0.0,92,0.05,,,0.29,Wunderground v.1.15,2013-02-15 03:27:00,
2013-02-14 22:32:00,58.0,55.7,29.92,North,352,0.0,0.0,92,0.04,,,0.30,Wunderground v.1.15,2013-02-15 03:32:00,
2013-02-14 22:37:00,58.0,55.7,29.92,North,352,0.0,0.0,92,0.04,,,0.30,Wunderground v.1.15,2013-02-15 03:37:00,
2013-02-14 22:43:00,58.0,55.7,29.92,NNE,32,0.0,0.0,92,0.04,,,0.30,Wunderground v.1.15,2013-02-15 03:43:00,
2013-02-14 22:48:00,58.0,55.7,29.89,ENE,68,0.0,0.0,92,0.00,,,0.30,Wunderground v.1.15,2013-02-15 03:48:00,
2013-02-14 22:53:00,58.0,55.7,29.89,ENE,68,0.0,0.0,92,0.00,,,0.30,Wunderground v.1.15,2013-02-15 03:53:00,
2013-02-14 22:59:00,58.0,55.7,29.89,NNW,336,0.0,0.0,92,0.00,,,0.30,Wunderground v.1.15,2013-02-15 03:59:00,
2013-02-14 23:04:00,58.0,55.7,29.92,NNW,336,0.0,0.0,92,0.00,,,0.30,Wunderground v.1.15,2013-02-15 04:04:00,
2013-02-14 23:09:00,58.1,55.8,29.92,NNW,336,0.0,0.0,92,0.00,,,0.30,Wunderground v.1.15,2013-02-15 04:09:00,
2013-02-14 23:15:00,58.1,55.8,29.92,NNW,336,0.0,0.0,92,0.00,,,0.30,Wunderground v.1.15,2013-02-15 04:15:00,
2013-02-14 23:20:00,58.3,56.0,29.92,NNW,336,0.0,0.0,92,0.00,,,0.30,Wunderground v.1.15,2013-02-15 04:20:00,
2013-02-14 23:25:00,58.3,56.0,29.92,NNW,336,0.0,0.0,92,0.00,,,0.30,Wunderground v.1.15,2013-02-15 04:25:00,
2013-02-14 23:30:00,58.4,56.1,29.92,NNW,336,0.0,0.0,92,0.00,,,0.30,Wunderground v.1.15,2013-02-15 04:30:00,
2013-02-14 23:36:00,58.4,56.1,29.91,NNW,336,0.0,0.0,92,0.00,,,0.30,Wunderground v.1.15,2013-02-15 04:36:00,
2013-02-14 23:41:00,58.4,56.1,29.91,NNW,336,0.0,0.0,92,0.00,,,0.30,Wunderground v.1.15,2013-02-15 04:41:00,
2013-02-14 23:46:00,58.3,56.0,29.88,ENE,73,0.0,1.0,92,0.00,,,0.30,Wunderground v.1.15,2013-02-15 04:46:00,
2013-02-14 23:51:00,58.1,55.8,29.88,ENE,73,0.0,0.0,92,0.00,,,0.30,Wunderground v.1.15,2013-02-15 04:51:00,
2013-02-14 23:57:00,58.1,55.8,29.88,ENE,73,0.0,0.0,92,0.00,,,0.30,Wunderground v.1.15,2013-02-15 04:57:00,